createdAt,value
2022-08-12T00:00:11.609Z,0.00
2022-08-12T00:01:11.623Z,0.00
2022-08-12T00:02:11.580Z,0.00
2022-08-12T00:03:11.705Z,0.00
2022-08-12T00:04:11.557Z,0.00
2022-08-12T00:05:11.549Z,0.00
2022-08-12T00:06:11.537Z,0.00
2022-08-12T00:07:11.535Z,0.00
2022-08-12T00:08:11.658Z,0.00
2022-08-12T00:09:11.523Z,0.00
2022-08-12T00:10:11.501Z,0.00
2022-08-12T00:11:19.653Z,0.00
2022-08-12T00:12:19.658Z,0.00
2022-08-12T00:13:19.658Z,0.00
2022-08-12T00:14:20.044Z,0.00
2022-08-12T00:15:19.714Z,0.00
2022-08-12T00:16:11.447Z,0.00
2022-08-12T00:17:11.451Z,0.00
2022-08-12T00:18:11.460Z,0.00
2022-08-12T00:19:11.428Z,0.00
2022-08-12T00:20:11.414Z,0.00
2022-08-12T00:21:11.431Z,0.00
2022-08-12T00:22:11.428Z,0.00
2022-08-12T00:23:11.388Z,0.00
2022-08-12T00:24:11.392Z,0.00
2022-08-12T00:25:11.381Z,0.00
2022-08-12T00:26:23.079Z,0.00
2022-08-12T00:27:11.373Z,0.00
2022-08-12T00:28:11.353Z,0.00
2022-08-12T00:29:11.332Z,0.00
2022-08-12T00:30:11.320Z,0.00
2022-08-12T00:31:11.319Z,0.00
2022-08-12T00:32:13.461Z,0.00
2022-08-12T00:33:11.339Z,0.00
2022-08-12T00:34:11.305Z,0.00
2022-08-12T00:35:11.291Z,0.00
2022-08-12T00:36:17.810Z,0.00
2022-08-12T00:37:13.242Z,0.00
2022-08-12T00:38:11.260Z,0.00
2022-08-12T00:39:11.286Z,0.00
2022-08-12T00:40:12.012Z,0.00
2022-08-12T00:41:11.232Z,0.00
2022-08-12T00:42:11.226Z,0.00
2022-08-12T00:43:11.270Z,0.00
2022-08-12T00:44:11.209Z,0.00
2022-08-12T00:45:11.248Z,0.00
2022-08-12T00:46:11.178Z,0.00
2022-08-12T00:47:24.229Z,0.00
2022-08-12T00:48:11.178Z,0.00
2022-08-12T00:49:11.156Z,0.00
2022-08-12T00:50:11.137Z,0.00
2022-08-12T00:51:11.129Z,0.00
2022-08-12T00:52:11.138Z,0.00
2022-08-12T00:53:11.177Z,0.00
2022-08-12T00:54:11.097Z,0.00
2022-08-12T00:55:11.096Z,0.00
2022-08-12T00:56:11.108Z,0.00
2022-08-12T00:57:11.109Z,0.00
2022-08-12T00:58:11.063Z,0.00
2022-08-12T00:59:11.058Z,0.00
2022-08-12T01:00:11.043Z,0.00
2022-08-12T01:01:11.064Z,0.00
2022-08-12T01:02:12.623Z,0.00
2022-08-12T01:03:11.034Z,0.00
2022-08-12T01:04:11.005Z,0.00
2022-08-12T01:05:11.000Z,0.00
2022-08-12T01:06:10.984Z,0.00
2022-08-12T01:07:11.039Z,0.00
2022-08-12T01:08:10.976Z,0.00
2022-08-12T01:09:11.076Z,0.00
2022-08-12T01:10:10.956Z,0.00
2022-08-12T01:11:10.946Z,0.00
2022-08-12T01:12:10.937Z,0.00
2022-08-12T01:13:19.569Z,0.00
2022-08-12T01:14:10.971Z,0.00
2022-08-12T01:15:10.911Z,0.00
2022-08-12T01:16:10.898Z,0.00
2022-08-12T01:17:10.907Z,0.00
2022-08-12T01:18:10.908Z,0.00
2022-08-12T01:19:10.933Z,0.00
2022-08-12T01:20:10.864Z,0.00
2022-08-12T01:21:10.862Z,0.00
2022-08-12T01:22:10.849Z,0.00
2022-08-12T01:23:10.852Z,0.00
2022-08-12T01:24:23.074Z,0.00
2022-08-12T01:25:10.832Z,0.00
2022-08-12T01:26:10.891Z,0.00
2022-08-12T01:27:10.829Z,0.00
2022-08-12T01:28:10.793Z,0.00
2022-08-12T01:29:10.809Z,0.00
2022-08-12T01:30:10.781Z,0.00
2022-08-12T01:31:14.524Z,0.00
2022-08-12T01:32:10.769Z,0.00
2022-08-12T01:33:10.844Z,0.00
2022-08-12T01:34:28.742Z,0.00
2022-08-12T01:35:10.749Z,0.00
2022-08-12T01:36:10.751Z,0.00
2022-08-12T01:37:10.724Z,0.00
2022-08-12T01:38:10.713Z,0.00
2022-08-12T01:39:10.796Z,0.00
2022-08-12T01:40:33.648Z,0.00
2022-08-12T01:41:10.691Z,0.00
2022-08-12T01:42:10.676Z,0.00
2022-08-12T01:43:10.687Z,0.00
2022-08-12T01:44:10.675Z,0.00
2022-08-12T01:45:10.653Z,0.00
2022-08-12T01:46:10.641Z,0.00
2022-08-12T01:47:10.632Z,0.00
2022-08-12T01:48:10.629Z,0.00
2022-08-12T01:49:10.638Z,0.00
2022-08-12T01:50:10.601Z,0.00
2022-08-12T01:51:10.596Z,0.00
2022-08-12T01:52:21.067Z,0.00
2022-08-12T01:53:10.618Z,0.00
2022-08-12T01:54:10.569Z,0.00
2022-08-12T01:55:10.586Z,0.00
2022-08-12T01:56:10.638Z,0.00
2022-08-12T01:57:10.551Z,0.00
2022-08-12T01:58:10.528Z,0.00
2022-08-12T01:59:12.320Z,0.00
2022-08-12T02:00:10.545Z,0.00
2022-08-12T02:01:10.587Z,0.00
2022-08-12T02:02:10.493Z,0.00
2022-08-12T02:03:10.538Z,0.00
2022-08-12T02:04:10.481Z,0.00
2022-08-12T02:05:10.472Z,0.00
2022-08-12T02:06:10.483Z,0.00
2022-08-12T02:07:10.463Z,0.00
2022-08-12T02:08:10.539Z,0.00
2022-08-12T02:09:10.437Z,0.00
2022-08-12T02:10:10.420Z,0.00
2022-08-12T02:11:10.447Z,0.00
2022-08-12T02:12:10.426Z,0.00
2022-08-12T02:13:10.487Z,0.00
2022-08-12T02:14:10.390Z,0.00
2022-08-12T02:15:10.444Z,0.00
2022-08-12T02:16:10.389Z,0.00
2022-08-12T02:17:10.382Z,0.00
2022-08-12T02:18:10.356Z,0.00
2022-08-12T02:19:13.200Z,0.00
2022-08-12T02:20:10.408Z,0.00
2022-08-12T02:21:10.329Z,0.00
2022-08-12T02:22:10.367Z,0.00
2022-08-12T02:23:10.314Z,0.00
2022-08-12T02:24:10.299Z,0.00
2022-08-12T02:25:10.320Z,0.00
2022-08-12T02:26:10.278Z,0.00
2022-08-12T02:27:10.300Z,0.00
2022-08-12T02:28:10.266Z,0.00
2022-08-12T02:29:10.262Z,0.00
2022-08-12T02:30:10.304Z,0.00
2022-08-12T02:31:10.238Z,0.00
2022-08-12T02:32:10.239Z,0.00
2022-08-12T02:33:10.333Z,0.00
2022-08-12T02:34:10.210Z,0.00
2022-08-12T02:35:10.207Z,0.00
2022-08-12T02:36:10.196Z,0.00
2022-08-12T02:37:10.190Z,0.00
2022-08-12T02:38:10.274Z,0.00
2022-08-12T02:39:10.301Z,0.00
2022-08-12T02:40:11.866Z,0.00
2022-08-12T02:41:10.153Z,0.00
2022-08-12T02:42:10.139Z,0.00
2022-08-12T02:43:10.177Z,0.00
2022-08-12T02:44:10.113Z,0.00
2022-08-12T02:45:10.141Z,0.00
2022-08-12T02:46:14.154Z,0.00
2022-08-12T02:47:58.108Z,0.00
2022-08-12T02:48:10.136Z,0.00
2022-08-12T02:49:10.087Z,0.00
2022-08-12T02:50:10.073Z,0.00
2022-08-12T02:51:10.063Z,0.00
2022-08-12T02:52:10.114Z,0.00
2022-08-12T02:53:10.068Z,0.00
2022-08-12T02:54:10.054Z,0.00
2022-08-12T02:55:10.033Z,0.00
2022-08-12T02:56:10.006Z,0.00
2022-08-12T02:57:10.002Z,0.00
2022-08-12T02:58:12.310Z,0.00
2022-08-12T02:59:10.062Z,0.00
2022-08-12T03:00:09.979Z,0.00
2022-08-12T03:01:10.011Z,0.00
2022-08-12T03:02:09.955Z,0.00
2022-08-12T03:03:09.954Z,0.00
2022-08-12T03:04:15.414Z,0.00
2022-08-12T03:05:09.938Z,0.00
2022-08-12T03:06:09.969Z,0.00
2022-08-12T03:07:09.915Z,0.00
2022-08-12T03:08:11.088Z,0.00
2022-08-12T03:09:09.941Z,0.00
2022-08-12T03:10:15.841Z,0.00
2022-08-12T03:11:12.201Z,0.00
2022-08-12T03:12:09.864Z,0.00
2022-08-12T03:13:09.884Z,0.00
2022-08-12T03:14:09.863Z,0.00
2022-08-12T03:15:09.845Z,0.00
2022-08-12T03:16:09.838Z,0.00
2022-08-12T03:17:09.822Z,0.00
2022-08-12T03:18:24.091Z,0.00
2022-08-12T03:19:09.827Z,0.00
2022-08-12T03:20:11.212Z,0.00
2022-08-12T03:21:09.786Z,0.00
2022-08-12T03:22:09.851Z,0.00
2022-08-12T03:23:09.773Z,0.00
2022-08-12T03:24:09.877Z,0.00
2022-08-12T03:25:09.756Z,0.00
2022-08-12T03:26:09.749Z,0.00
2022-08-12T03:27:09.736Z,0.00
2022-08-12T03:28:09.668Z,0.00
2022-08-12T03:29:09.763Z,0.00
2022-08-12T03:30:09.704Z,0.00
2022-08-12T03:31:09.826Z,0.00
2022-08-12T03:32:09.651Z,0.00
2022-08-12T03:33:09.632Z,0.00
2022-08-12T03:34:09.694Z,0.00
2022-08-12T03:35:09.670Z,0.00
2022-08-12T03:36:09.658Z,0.00
2022-08-12T03:37:09.649Z,0.00
2022-08-12T03:38:09.710Z,0.00
2022-08-12T03:39:09.642Z,0.00
2022-08-12T03:40:09.679Z,0.00
2022-08-12T03:41:09.612Z,0.00
2022-08-12T03:42:09.570Z,0.00
2022-08-12T03:43:11.809Z,0.00
2022-08-12T03:44:09.545Z,0.00
2022-08-12T03:45:09.512Z,0.00
2022-08-12T03:46:09.569Z,0.00
2022-08-12T03:47:09.502Z,0.00
2022-08-12T03:48:09.498Z,0.00
2022-08-12T03:49:09.510Z,0.00
2022-08-12T03:50:09.475Z,0.00
2022-08-12T03:51:09.479Z,0.00
2022-08-12T03:52:17.008Z,0.00
2022-08-12T03:53:17.781Z,0.00
2022-08-12T03:54:17.815Z,0.00
2022-08-12T03:55:17.821Z,0.00
2022-08-12T03:56:17.839Z,0.00
2022-08-12T03:57:09.416Z,0.00
2022-08-12T03:58:09.401Z,0.00
2022-08-12T03:59:09.392Z,0.00
2022-08-12T04:00:09.400Z,0.00
2022-08-12T04:01:09.430Z,0.00
2022-08-12T04:02:09.365Z,0.00
2022-08-12T04:03:12.816Z,0.00
2022-08-12T04:04:09.354Z,0.00
2022-08-12T04:05:09.357Z,0.00
2022-08-12T04:06:09.338Z,0.00
2022-08-12T04:07:09.320Z,0.00
2022-08-12T04:08:09.325Z,0.00
2022-08-12T04:09:15.814Z,0.00
2022-08-12T04:10:09.298Z,0.00
2022-08-12T04:11:09.281Z,0.00
2022-08-12T04:12:09.287Z,0.00
2022-08-12T04:13:09.277Z,5.62
2022-08-12T04:14:09.307Z,11.25
2022-08-12T04:15:09.246Z,22.50
2022-08-12T04:16:09.251Z,33.75
2022-08-12T04:17:09.232Z,33.75
2022-08-12T04:18:09.225Z,33.75
2022-08-12T04:19:09.235Z,28.12
2022-08-12T04:20:09.229Z,33.75
2022-08-12T04:21:09.196Z,28.12
2022-08-12T04:22:09.191Z,33.75
2022-08-12T04:23:09.180Z,33.75
2022-08-12T04:24:09.190Z,39.38
2022-08-12T04:25:09.159Z,39.38
2022-08-12T04:26:09.173Z,45.00
2022-08-12T04:27:09.153Z,45.00
2022-08-12T04:28:13.149Z,50.62
2022-08-12T04:29:09.139Z,56.25
2022-08-12T04:30:32.063Z,56.25
2022-08-12T04:31:09.115Z,61.88
2022-08-12T04:32:09.118Z,61.88
2022-08-12T04:33:09.093Z,61.88
2022-08-12T04:34:09.108Z,61.88
2022-08-12T04:35:09.068Z,61.88
2022-08-12T04:36:09.071Z,61.88
2022-08-12T04:37:09.059Z,61.88
2022-08-12T04:38:09.049Z,56.25
2022-08-12T04:39:09.055Z,61.88
2022-08-12T04:40:09.027Z,61.88
2022-08-12T04:41:09.019Z,61.88
2022-08-12T04:42:09.014Z,61.88
2022-08-12T04:43:55.319Z,67.50
2022-08-12T04:44:09.033Z,67.50
2022-08-12T04:45:08.983Z,73.12
2022-08-12T04:46:08.975Z,73.12
2022-08-12T04:47:08.962Z,78.75
2022-08-12T04:48:08.955Z,84.38
2022-08-12T04:49:08.959Z,84.38
2022-08-12T04:50:34.435Z,78.75
2022-08-12T04:51:08.928Z,84.38
2022-08-12T04:52:08.941Z,84.38
2022-08-12T04:53:09.284Z,84.38
2022-08-12T04:54:08.944Z,90.00
2022-08-12T04:55:08.891Z,95.62
2022-08-12T04:56:08.905Z,101.25
2022-08-12T04:57:08.889Z,95.62
2022-08-12T04:58:08.871Z,90.00
2022-08-12T04:59:08.879Z,90.00
2022-08-12T05:00:08.848Z,95.62
2022-08-12T05:01:08.833Z,101.25
2022-08-12T05:02:09.705Z,95.62
2022-08-12T05:03:08.819Z,95.62
2022-08-12T05:04:08.818Z,95.62
2022-08-12T05:05:08.813Z,61.88
2022-08-12T05:06:08.797Z,28.12
2022-08-12T05:07:08.782Z,22.50
2022-08-12T05:08:08.771Z,22.50
2022-08-12T05:09:13.114Z,22.50
2022-08-12T05:10:08.788Z,22.50
2022-08-12T05:11:08.747Z,22.50
2022-08-12T05:12:08.739Z,22.50
2022-08-12T05:13:08.722Z,22.50
2022-08-12T05:14:08.738Z,22.50
2022-08-12T05:15:18.933Z,22.50
2022-08-12T05:16:09.205Z,22.50
2022-08-12T05:17:08.692Z,22.50
2022-08-12T05:18:19.358Z,22.50
2022-08-12T05:19:12.932Z,28.12
2022-08-12T05:20:08.678Z,28.12
2022-08-12T05:21:08.676Z,28.12
2022-08-12T05:22:08.645Z,28.12
2022-08-12T05:23:13.158Z,28.12
2022-08-12T05:24:08.628Z,28.12
2022-08-12T05:25:08.618Z,28.12
2022-08-12T05:26:08.625Z,28.12
2022-08-12T05:27:08.598Z,28.12
2022-08-12T05:28:08.592Z,28.12
2022-08-12T05:30:05.341Z,28.12
2022-08-12T05:30:13.498Z,28.12
2022-08-12T05:31:08.590Z,28.12
2022-08-12T05:32:08.555Z,28.12
2022-08-12T05:33:08.544Z,28.12
2022-08-12T05:34:08.548Z,28.12
2022-08-12T05:35:08.547Z,28.12
2022-08-12T05:36:08.520Z,28.12
2022-08-12T05:37:08.534Z,28.12
2022-08-12T05:38:08.529Z,28.12
2022-08-12T05:39:08.489Z,28.12
2022-08-12T05:40:11.198Z,28.12
2022-08-12T05:41:08.473Z,28.12
2022-08-12T05:42:08.467Z,28.12
2022-08-12T05:43:08.478Z,28.12
2022-08-12T05:44:08.457Z,28.12
2022-08-12T05:45:08.434Z,28.12
2022-08-12T05:46:08.429Z,28.12
2022-08-12T05:47:08.420Z,28.12
2022-08-12T05:48:08.414Z,28.12
2022-08-12T05:49:08.414Z,28.12
2022-08-12T05:50:08.406Z,28.12
2022-08-12T05:51:08.384Z,28.12
2022-08-12T05:52:08.379Z,28.12
2022-08-12T05:53:08.395Z,28.12
2022-08-12T05:54:08.367Z,28.12
2022-08-12T05:55:08.352Z,28.12
2022-08-12T05:56:08.354Z,28.12
2022-08-12T05:57:08.329Z,28.12
2022-08-12T05:58:08.327Z,28.12
2022-08-12T05:59:08.331Z,28.12
2022-08-12T06:00:08.321Z,28.12
2022-08-12T06:02:09.314Z,28.12
2022-08-12T06:02:15.601Z,28.12
2022-08-12T06:03:08.356Z,28.12
2022-08-12T06:04:08.281Z,28.12
2022-08-12T06:05:08.270Z,28.12
2022-08-12T06:06:08.256Z,28.12
2022-08-12T06:08:00.840Z,28.12
2022-08-12T06:08:08.262Z,28.12
2022-08-12T06:09:08.223Z,28.12
2022-08-12T06:10:08.220Z,28.12
2022-08-12T06:11:08.209Z,28.12
2022-08-12T06:12:08.207Z,28.12
2022-08-12T06:13:08.209Z,28.12
2022-08-12T06:14:12.136Z,28.12
2022-08-12T06:15:08.172Z,28.12
2022-08-12T06:16:08.171Z,28.12
2022-08-12T06:17:08.159Z,28.12
2022-08-12T06:18:13.954Z,28.12
2022-08-12T06:19:08.150Z,28.12
2022-08-12T06:20:26.160Z,28.12
2022-08-12T06:21:08.134Z,28.12
2022-08-12T06:22:08.120Z,28.12
2022-08-12T06:23:08.132Z,28.12
2022-08-12T06:24:08.110Z,28.12
2022-08-12T06:25:08.095Z,28.12
2022-08-12T06:26:08.088Z,28.12
2022-08-12T06:27:08.064Z,28.12
2022-08-12T06:28:08.508Z,28.12
2022-08-12T06:29:08.066Z,28.12
2022-08-12T06:30:13.422Z,28.12
2022-08-12T06:31:25.375Z,28.12
2022-08-12T06:32:08.033Z,28.12
2022-08-12T06:33:21.005Z,28.12
2022-08-12T06:35:26.916Z,28.12
2022-08-12T06:35:57.581Z,28.12
2022-08-12T06:36:07.997Z,28.12
2022-08-12T06:37:07.985Z,28.12
2022-08-12T06:38:07.978Z,28.12
2022-08-12T06:39:15.118Z,28.12
2022-08-12T06:40:08.012Z,28.12
2022-08-12T06:41:07.945Z,28.12
2022-08-12T06:42:31.633Z,28.12
2022-08-12T06:43:07.928Z,28.12
2022-08-12T06:44:08.203Z,28.12
2022-08-12T06:45:11.790Z,28.12
2022-08-12T06:46:07.908Z,28.12
2022-08-12T06:47:07.888Z,28.12
2022-08-12T06:48:07.881Z,28.12
2022-08-12T06:49:07.885Z,28.12
2022-08-12T06:50:07.873Z,28.12
2022-08-12T06:51:07.861Z,28.12
2022-08-12T06:52:07.853Z,28.12
2022-08-12T06:53:07.844Z,28.12
2022-08-12T06:54:07.851Z,28.12
2022-08-12T06:55:07.812Z,28.12
2022-08-12T06:56:12.043Z,28.12
2022-08-12T06:58:05.515Z,28.12
2022-08-12T06:58:11.751Z,28.12
2022-08-12T06:59:07.784Z,28.12
2022-08-12T07:00:07.828Z,28.12
2022-08-12T07:01:07.798Z,28.12
2022-08-12T07:02:07.757Z,28.12
2022-08-12T07:03:22.937Z,28.12
2022-08-12T07:04:33.779Z,28.12
2022-08-12T07:05:07.746Z,28.12
2022-08-12T07:06:07.833Z,28.12
2022-08-12T07:07:07.723Z,28.12
2022-08-12T07:08:10.197Z,28.12
2022-08-12T07:09:07.693Z,28.12
2022-08-12T07:10:08.482Z,28.12
2022-08-12T07:11:07.672Z,28.12
2022-08-12T07:12:07.714Z,28.12
2022-08-12T07:13:07.654Z,28.12
2022-08-12T07:14:12.846Z,28.12
2022-08-12T07:15:07.665Z,22.50
2022-08-12T07:16:07.637Z,22.50
2022-08-12T07:17:07.623Z,22.50
2022-08-12T07:18:07.658Z,22.50
2022-08-12T07:19:07.602Z,22.50
2022-08-12T07:20:07.651Z,22.50
2022-08-12T07:21:07.597Z,22.50
2022-08-12T07:22:07.575Z,22.50
2022-08-12T07:23:07.561Z,22.50
2022-08-12T07:24:07.583Z,22.50
2022-08-12T07:25:07.583Z,22.50
2022-08-12T07:26:07.544Z,22.50
2022-08-12T07:27:07.529Z,22.50
2022-08-12T07:28:14.078Z,22.50
2022-08-12T07:29:07.516Z,22.50
2022-08-12T07:30:07.509Z,22.50
2022-08-12T07:31:07.592Z,22.50
2022-08-12T07:32:07.491Z,22.50
2022-08-12T07:33:07.470Z,22.50
2022-08-12T07:34:07.537Z,22.50
2022-08-12T07:35:15.929Z,22.50
2022-08-12T07:36:07.452Z,22.50
2022-08-12T07:37:07.448Z,22.50
2022-08-12T07:38:07.433Z,22.50
2022-08-12T07:39:07.424Z,22.50
2022-08-12T07:40:07.470Z,22.50
2022-08-12T07:41:07.414Z,22.50
2022-08-12T07:42:07.406Z,22.50
2022-08-12T07:43:07.390Z,22.50
2022-08-12T07:44:07.478Z,22.50
2022-08-12T07:45:07.406Z,22.50
2022-08-12T07:46:07.379Z,22.50
2022-08-12T07:47:07.372Z,22.50
2022-08-12T07:48:07.368Z,22.50
2022-08-12T07:49:07.343Z,22.50
2022-08-12T07:50:07.348Z,22.50
2022-08-12T07:51:07.320Z,22.50
2022-08-12T07:52:07.329Z,22.50
2022-08-12T07:53:07.323Z,22.50
2022-08-12T07:54:07.295Z,22.50
2022-08-12T07:55:07.303Z,22.50
2022-08-12T07:56:07.268Z,22.50
2022-08-12T07:57:07.295Z,22.50
2022-08-12T07:58:07.267Z,22.50
2022-08-12T07:59:07.251Z,22.50
2022-08-12T08:00:07.235Z,22.50
2022-08-12T08:01:12.012Z,22.50
2022-08-12T08:02:07.290Z,22.50
2022-08-12T08:03:07.223Z,22.50
2022-08-12T08:04:07.236Z,22.50
2022-08-12T08:05:07.219Z,22.50
2022-08-12T08:06:07.182Z,22.50
2022-08-12T08:07:07.183Z,22.50
2022-08-12T08:08:07.173Z,22.50
2022-08-12T08:09:07.160Z,22.50
2022-08-12T08:10:07.155Z,22.50
2022-08-12T08:11:07.139Z,22.50
2022-08-12T08:12:07.128Z,22.50
2022-08-12T08:13:07.139Z,22.50
2022-08-12T08:14:07.102Z,22.50
2022-08-12T08:15:07.963Z,22.50
2022-08-12T08:16:07.089Z,22.50
2022-08-12T08:17:15.633Z,22.50
2022-08-12T08:18:07.110Z,22.50
2022-08-12T08:19:07.073Z,22.50
2022-08-12T08:20:07.051Z,22.50
2022-08-12T08:21:07.050Z,22.50
2022-08-12T08:22:07.032Z,22.50
2022-08-12T08:23:07.044Z,22.50
2022-08-12T08:24:07.017Z,22.50
2022-08-12T08:25:35.055Z,22.50
2022-08-12T08:26:07.001Z,22.50
2022-08-12T08:27:07.017Z,22.50
2022-08-12T08:28:07.015Z,22.50
2022-08-12T08:29:06.975Z,22.50
2022-08-12T08:30:06.960Z,22.50
2022-08-12T08:31:06.977Z,22.50
2022-08-12T08:32:06.943Z,22.50
2022-08-12T08:33:23.524Z,22.50
2022-08-12T08:34:49.015Z,28.12
2022-08-12T08:35:14.465Z,22.50
2022-08-12T08:36:07.668Z,28.12
2022-08-12T08:37:07.855Z,28.12
2022-08-12T08:38:06.995Z,28.12
2022-08-12T08:39:06.888Z,28.12
2022-08-12T08:40:06.877Z,28.12
2022-08-12T08:41:06.897Z,28.12
2022-08-12T08:42:17.997Z,28.12
2022-08-12T08:43:06.856Z,28.12
2022-08-12T08:44:07.469Z,28.12
2022-08-12T08:45:06.966Z,28.12
2022-08-12T08:46:10.190Z,28.12
2022-08-12T08:47:07.103Z,28.12
2022-08-12T08:48:06.990Z,28.12
2022-08-12T08:49:07.070Z,28.12
2022-08-12T08:50:06.901Z,28.12
2022-08-12T08:51:06.971Z,22.50
2022-08-12T08:52:06.993Z,22.50
2022-08-12T08:53:07.163Z,22.50
2022-08-12T08:54:06.995Z,22.50
2022-08-12T08:55:07.115Z,22.50
2022-08-12T08:56:06.989Z,22.50
2022-08-12T08:57:06.746Z,22.50
2022-08-12T08:58:06.717Z,22.50
2022-08-12T08:59:06.729Z,22.50
2022-08-12T09:00:06.703Z,22.50
2022-08-12T09:01:06.700Z,22.50
2022-08-12T09:02:07.724Z,22.50
2022-08-12T09:04:21.237Z,22.50
2022-08-12T09:05:25.478Z,22.50
2022-08-12T09:06:01.998Z,22.50
2022-08-12T09:28:49.745Z,22.50
2022-08-12T09:28:58.068Z,22.50
2022-08-12T09:30:10.472Z,22.50
2022-08-12T09:30:59.035Z,22.50
2022-08-12T09:32:07.973Z,22.50
2022-08-12T09:33:05.821Z,22.50
2022-08-12T09:34:27.909Z,22.50
2022-08-12T09:34:57.993Z,22.50
2022-08-12T09:36:03.197Z,22.50
2022-08-12T09:37:01.392Z,22.50
2022-08-12T09:38:01.033Z,22.50
2022-08-12T09:38:58.740Z,22.50
2022-08-12T09:40:01.717Z,28.12
2022-08-12T09:42:08.716Z,28.12
2022-08-12T09:43:01.006Z,22.50
2022-08-12T09:43:20.875Z,28.12
2022-08-12T09:44:01.131Z,28.12
2022-08-12T09:45:03.494Z,28.12
2022-08-12T09:46:11.612Z,28.12
2022-08-12T09:46:57.922Z,28.12
2022-08-12T09:48:00.076Z,28.12
2022-08-12T09:48:57.888Z,28.12
2022-08-12T09:49:58.843Z,28.12
2022-08-12T09:50:58.658Z,28.12
2022-08-12T09:51:57.911Z,28.12
2022-08-12T09:53:03.865Z,28.12
2022-08-12T09:54:08.927Z,28.12
2022-08-12T09:55:02.308Z,28.12
2022-08-12T09:56:05.639Z,28.12
2022-08-12T09:58:07.705Z,28.12
2022-08-12T09:58:59.584Z,28.12
2022-08-12T09:59:05.789Z,28.12
2022-08-12T10:00:13.623Z,28.12
2022-08-12T10:01:00.646Z,28.12
2022-08-12T10:02:45.070Z,22.50
2022-08-12T10:03:01.510Z,28.12
2022-08-12T10:04:03.852Z,28.12
2022-08-12T10:05:00.487Z,28.12
2022-08-12T10:06:26.295Z,28.12
2022-08-12T10:07:00.779Z,28.12
2022-08-12T10:08:00.495Z,28.12
2022-08-12T10:09:00.450Z,28.12
2022-08-12T10:10:00.448Z,28.12
2022-08-12T10:11:00.451Z,28.12
2022-08-12T10:12:10.603Z,28.12
2022-08-12T10:13:06.664Z,28.12
2022-08-12T10:14:00.427Z,28.12
2022-08-12T10:15:00.396Z,28.12
2022-08-12T10:16:02.748Z,28.12
2022-08-12T10:17:00.392Z,28.12
2022-08-12T10:18:07.070Z,28.12
2022-08-12T10:19:00.386Z,28.12
2022-08-12T10:20:01.723Z,28.12
2022-08-12T10:21:01.068Z,28.12
2022-08-12T10:22:00.378Z,28.12
2022-08-12T10:23:00.822Z,33.75
2022-08-12T10:24:00.347Z,33.75
2022-08-12T10:25:00.313Z,33.75
2022-08-12T10:26:34.326Z,33.75
2022-08-12T10:27:00.311Z,33.75
2022-08-12T10:28:04.563Z,33.75
2022-08-12T10:29:02.374Z,33.75
2022-08-12T10:30:11.934Z,28.12
2022-08-12T10:31:01.525Z,33.75
2022-08-12T10:32:20.986Z,33.75
2022-08-12T10:33:00.472Z,33.75
2022-08-12T10:34:07.598Z,33.75
2022-08-12T10:35:00.254Z,33.75
2022-08-12T10:36:00.222Z,33.75
2022-08-12T10:37:10.540Z,33.75
2022-08-12T10:38:34.105Z,39.38
2022-08-12T10:39:00.193Z,39.38
2022-08-12T10:40:09.438Z,39.38
2022-08-12T10:41:00.302Z,39.38
2022-08-12T10:42:00.412Z,39.38
2022-08-12T10:43:00.618Z,39.38
2022-08-12T10:44:00.198Z,39.38
2022-08-12T10:45:00.189Z,39.38
2022-08-12T10:46:00.157Z,39.38
2022-08-12T10:47:00.176Z,39.38
2022-08-12T10:48:15.905Z,33.75
2022-08-12T10:50:56.655Z,28.12
2022-08-12T10:52:02.581Z,33.75
2022-08-12T10:52:49.728Z,39.38
2022-08-12T10:53:49.157Z,39.38
2022-08-12T10:54:49.573Z,39.38
2022-08-12T10:55:56.217Z,39.38
2022-08-12T10:56:49.153Z,39.38
2022-08-12T10:58:13.405Z,45.00
2022-08-12T10:58:49.149Z,39.38
2022-08-12T11:00:29.792Z,45.00
2022-08-12T11:01:25.619Z,45.00
2022-08-12T11:04:23.557Z,45.00
2022-08-12T11:04:25.544Z,45.00
2022-08-12T11:04:28.473Z,45.00
2022-08-12T11:07:08.082Z,45.00
2022-08-12T11:08:42.393Z,45.00
2022-08-12T11:08:48.815Z,39.38
2022-08-12T11:09:56.215Z,39.38
2022-08-12T11:10:48.687Z,45.00
2022-08-12T11:12:34.713Z,45.00
2022-08-12T11:13:00.538Z,45.00
2022-08-12T11:13:49.277Z,39.38
2022-08-12T11:14:51.248Z,39.38
2022-08-12T11:16:03.208Z,45.00
2022-08-12T11:17:43.964Z,39.38
2022-08-12T11:17:59.159Z,39.38
2022-08-12T11:18:48.610Z,39.38
2022-08-12T11:19:48.847Z,39.38
2022-08-12T11:20:49.081Z,39.38
2022-08-12T11:21:58.147Z,39.38
2022-08-12T11:22:57.781Z,39.38
2022-08-12T11:23:53.303Z,39.38
2022-08-12T11:24:51.474Z,39.38
2022-08-12T11:25:58.209Z,33.75
2022-08-12T11:26:48.581Z,33.75
2022-08-12T11:27:51.286Z,33.75
2022-08-12T11:28:59.400Z,33.75
2022-08-12T11:30:02.529Z,39.38
2022-08-12T11:30:48.509Z,33.75
2022-08-12T11:32:01.824Z,33.75
2022-08-12T11:32:48.530Z,28.12
2022-08-12T11:34:05.996Z,22.50
2022-08-12T11:34:59.368Z,22.50
2022-08-12T11:35:48.498Z,22.50
2022-08-12T11:36:53.352Z,22.50
2022-08-12T11:37:59.069Z,28.12
2022-08-12T11:38:50.410Z,22.50
2022-08-12T11:40:48.392Z,22.50
2022-08-12T11:41:48.383Z,28.12
2022-08-12T11:42:48.574Z,28.12
2022-08-12T11:43:50.294Z,28.12
2022-08-12T11:44:48.370Z,33.75
2022-08-12T11:45:53.398Z,28.12
2022-08-12T11:46:51.001Z,28.12
2022-08-12T11:47:49.186Z,22.50
2022-08-12T11:48:52.180Z,22.50
2022-08-12T11:49:51.950Z,22.50
2022-08-12T11:50:48.314Z,22.50
2022-08-12T11:51:57.804Z,22.50
2022-08-12T11:52:56.666Z,22.50
2022-08-12T11:53:57.016Z,28.12
2022-08-12T11:54:51.177Z,28.12
2022-08-12T11:55:48.269Z,28.12
2022-08-12T11:56:52.378Z,28.12
2022-08-12T11:58:13.650Z,22.50
2022-08-12T12:02:02.095Z,28.12
2022-08-12T12:02:09.748Z,28.12
2022-08-12T12:02:20.126Z,28.12
2022-08-12T12:03:17.332Z,28.12
2022-08-12T12:04:28.689Z,28.12
2022-08-12T12:05:14.618Z,28.12
2022-08-12T12:06:16.390Z,28.12
2022-08-12T12:07:14.552Z,28.12
2022-08-12T12:08:37.700Z,28.12
2022-08-12T12:09:14.527Z,28.12
2022-08-12T12:10:14.591Z,28.12
2022-08-12T12:11:14.519Z,28.12
2022-08-12T12:12:14.517Z,28.12
2022-08-12T12:13:22.907Z,28.12
2022-08-12T12:14:14.491Z,22.50
2022-08-12T12:15:14.463Z,22.50
2022-08-12T12:16:14.456Z,22.50
2022-08-12T12:17:14.442Z,28.12
2022-08-12T12:18:14.436Z,22.50
2022-08-12T12:19:14.437Z,22.50
2022-08-12T12:20:14.516Z,22.50
2022-08-12T12:21:14.436Z,28.12
2022-08-12T12:22:15.538Z,22.50
2022-08-12T12:23:28.977Z,28.12
2022-08-12T12:24:14.456Z,28.12
2022-08-12T12:25:14.616Z,28.12
2022-08-12T12:26:35.398Z,28.12
2022-08-12T12:27:19.335Z,28.12
2022-08-12T12:28:37.393Z,22.50
2022-08-12T12:30:18.483Z,22.50
2022-08-12T12:42:41.685Z,28.12
2022-08-12T12:43:00.476Z,28.12
2022-08-12T12:43:56.361Z,28.12
2022-08-12T12:44:53.574Z,28.12
2022-08-12T12:45:46.680Z,28.12
2022-08-12T12:48:18.939Z,28.12
2022-08-12T12:49:18.967Z,28.12
2022-08-12T12:50:34.923Z,28.12
2022-08-12T12:51:22.174Z,28.12
2022-08-12T12:52:21.230Z,28.12
2022-08-12T12:54:07.153Z,16.88
2022-08-12T12:54:22.323Z,16.88
2022-08-12T12:55:18.917Z,16.88
2022-08-12T12:56:18.915Z,22.50
2022-08-12T12:57:21.409Z,22.50
2022-08-12T12:58:18.893Z,28.12
2022-08-12T12:59:54.502Z,22.50
2022-08-12T13:00:18.887Z,28.12
2022-08-12T13:01:25.402Z,28.12
2022-08-12T13:04:12.258Z,28.12
2022-08-12T13:05:11.878Z,28.12
2022-08-12T13:06:10.103Z,28.12
2022-08-12T13:07:07.972Z,28.12
2022-08-12T13:08:09.536Z,28.12
2022-08-12T13:09:13.064Z,28.12
2022-08-12T13:10:07.899Z,28.12
2022-08-12T13:11:07.887Z,28.12
2022-08-12T13:12:08.106Z,33.75
2022-08-12T13:14:08.760Z,33.75
2022-08-12T13:14:29.449Z,28.12
2022-08-12T13:15:07.841Z,33.75
2022-08-12T13:16:14.530Z,28.12
2022-08-12T13:17:07.858Z,33.75
2022-08-12T13:18:08.445Z,33.75
2022-08-12T13:19:09.250Z,33.75
2022-08-12T13:20:09.566Z,33.75
2022-08-12T13:21:15.821Z,33.75
2022-08-12T13:22:08.979Z,33.75
2022-08-12T13:23:36.133Z,33.75
2022-08-12T13:24:10.284Z,33.75
2022-08-12T13:25:09.131Z,33.75
2022-08-12T13:26:07.768Z,33.75
2022-08-12T13:27:07.767Z,39.38
2022-08-12T13:28:07.757Z,39.38
2022-08-12T13:29:10.300Z,39.38
2022-08-12T13:30:11.123Z,39.38
2022-08-12T13:31:07.695Z,39.38
2022-08-12T13:32:19.298Z,39.38
2022-08-12T13:33:07.733Z,33.75
2022-08-12T13:34:33.904Z,28.12
2022-08-12T13:35:19.419Z,22.50
2022-08-12T13:36:10.272Z,22.50
2022-08-12T13:37:09.815Z,22.50
2022-08-12T13:38:12.130Z,22.50
2022-08-12T13:39:08.079Z,22.50
2022-08-12T13:40:07.625Z,22.50
2022-08-12T13:41:11.248Z,22.50
2022-08-12T13:42:07.599Z,22.50
2022-08-12T13:43:07.624Z,22.50